Kansas City, KS

9:22 PM CST on February 12, 2016 (GMT -0600)
Scott's North Kansas City Station | | Change Station
CLOSE
Current Station
Personal Weather Station
Location: Kansas City, MO
Elevation: 758 ft
Nearby Weather Stations

Elev 758 ft 39.15 °N, 94.57 °W | Updated 14 minutes ago

Clear
Clear
23.1 °F
Feels Like 23 °F
N
0.0
Wind Variable Wind from NW
Gusts 3.0 mph

Today
High -- | Low -- °F
--% Chance of Precip.
Yesterday
High -- | Low -- °F
Precip. -- in
Pressure 30.60 in
Visibility 10.0 miles
Clouds Clear
Windchill 23 °F
Dew Point 8 °F
Humidity 53%
Rainfall 0.00 in
Snow Depth Not available.
7:14 AM 5:51 PM
Waxing Crescent, 26% visible
METAR KMKC 130254Z 36008KT 10SM CLR M04/M14 A3057 RMK AO2 SLP361 T10441139 51021
Pressure 30.60 in
Visibility 10.0 miles
Clouds Clear
Windchill 23 °F
Dew Point 8 °F
Humidity 53%
Rainfall 0.00 in
Snow Depth Not available.
7:14 AM 5:51 PM
Waxing Crescent, 26% visible
METAR KMKC 130254Z 36008KT 10SM CLR M04/M14 A3057 RMK AO2 SLP361 T10441139 51021

10-Day Weather Forecast

Almanac

Astronomy

Feb. 12, 2016 Rise Set
Actual Time
Civil Twilight
Nautical Twilight
Astronomical Twilight
Moon
Length of Visible Light
Length of Day
Tomorrow will be .
, % of the Moon is Illuminated

Today's Extremes

State Highs State Lows

Community

WunderPhotos

Upload Photos

1,892,491 photos uploaded!

WunderBlog® & News

Nearby

Air Quality

  Air Quality AQ Index Pollutant
Not available.

Snow Depth

Station Depth Elevation

Earthquake Activity

City Distance Mag. Time & Date
Minimum magnitude displayed is 2.5.

Coastal Water Temperatures

Place Temperature

Stations

Nearby Weather Stations

Station Location Temp. Windchill Dew Point Humidity Wind Precip. Elev Updated Type
                   

Watches & Warnings

There are currently no watches in effect.